sensor_id;sensor_type;location;lat;lon;timestamp;P1;durP1;ratioP1;P2;durP2;ratioP2
12762;SDS011;6445;52.490;13.378;2023-03-21T00:01:14;13.75;;;11.07;;
12762;SDS011;6445;52.490;13.378;2023-03-21T00:03:40;12.90;;;10.30;;
12762;SDS011;6445;52.490;13.378;2023-03-21T00:06:08;13.38;;;10.57;;
12762;SDS011;6445;52.490;13.378;2023-03-21T00:08:35;14.80;;;10.85;;
12762;SDS011;6445;52.490;13.378;2023-03-21T00:11:02;12.93;;;10.75;;
12762;SDS011;6445;52.490;13.378;2023-03-21T00:13:30;18.67;;;11.23;;
12762;SDS011;6445;52.490;13.378;2023-03-21T00:16:03;14.00;;;10.77;;
12762;SDS011;6445;52.490;13.378;2023-03-21T00:18:33;15.60;;;11.32;;
12762;SDS011;6445;52.490;13.378;2023-03-21T00:21:05;14.55;;;11.50;;
12762;SDS011;6445;52.490;13.378;2023-03-21T00:23:32;13.88;;;12.10;;
12762;SDS011;6445;52.490;13.378;2023-03-21T00:25:59;16.90;;;11.65;;
12762;SDS011;6445;52.490;13.378;2023-03-21T00:28:25;16.10;;;11.25;;
12762;SDS011;6445;52.490;13.378;2023-03-21T00:30:50;12.13;;;10.80;;
12762;SDS011;6445;52.490;13.378;2023-03-21T00:33:21;16.05;;;11.05;;
12762;SDS011;6445;52.490;13.378;2023-03-21T00:35:46;14.00;;;11.15;;
12762;SDS011;6445;52.490;13.378;2023-03-21T00:38:15;12.63;;;11.25;;
12762;SDS011;6445;52.490;13.378;2023-03-21T00:40:41;13.43;;;11.00;;
12762;SDS011;6445;52.490;13.378;2023-03-21T00:43:06;15.00;;;11.77;;
12762;SDS011;6445;52.490;13.378;2023-03-21T00:45:32;16.27;;;11.70;;
12762;SDS011;6445;52.490;13.378;2023-03-21T00:47:57;14.23;;;11.90;;
12762;SDS011;6445;52.490;13.378;2023-03-21T00:50:22;18.20;;;11.82;;
12762;SDS011;6445;52.490;13.378;2023-03-21T00:52:48;18.60;;;12.70;;
12762;SDS011;6445;52.490;13.378;2023-03-21T00:55:14;15.60;;;12.65;;
12762;SDS011;6445;52.490;13.378;2023-03-21T00:57:42;19.02;;;13.57;;
12762;SDS011;6445;52.490;13.378;2023-03-21T01:00:10;18.17;;;13.38;;
12762;SDS011;6445;52.490;13.378;2023-03-21T01:02:37;17.77;;;13.55;;
12762;SDS011;6445;52.490;13.378;2023-03-21T01:05:06;16.48;;;14.00;;
12762;SDS011;6445;52.490;13.378;2023-03-21T01:07:33;16.98;;;13.13;;
12762;SDS011;6445;52.490;13.378;2023-03-21T01:09:58;17.27;;;13.63;;
12762;SDS011;6445;52.490;13.378;2023-03-21T01:12:24;18.38;;;13.73;;
12762;SDS011;6445;52.490;13.378;2023-03-21T01:14:49;18.73;;;14.25;;
12762;SDS011;6445;52.490;13.378;2023-03-21T01:17:14;22.50;;;14.95;;
12762;SDS011;6445;52.490;13.378;2023-03-21T01:19:40;16.98;;;14.63;;
12762;SDS011;6445;52.490;13.378;2023-03-21T01:22:05;17.85;;;14.13;;
12762;SDS011;6445;52.490;13.378;2023-03-21T01:24:30;18.20;;;14.27;;
12762;SDS011;6445;52.490;13.378;2023-03-21T01:26:56;18.63;;;14.98;;
12762;SDS011;6445;52.490;13.378;2023-03-21T01:29:21;19.13;;;14.77;;
12762;SDS011;6445;52.490;13.378;2023-03-21T01:31:46;20.23;;;15.05;;
12762;SDS011;6445;52.490;13.378;2023-03-21T01:34:12;20.25;;;15.85;;
12762;SDS011;6445;52.490;13.378;2023-03-21T01:36:38;22.83;;;16.00;;
12762;SDS011;6445;52.490;13.378;2023-03-21T01:39:03;20.27;;;16.95;;
12762;SDS011;6445;52.490;13.378;2023-03-21T01:41:33;23.98;;;18.20;;
12762;SDS011;6445;52.490;13.378;2023-03-21T01:44:01;24.60;;;18.52;;
12762;SDS011;6445;52.490;13.378;2023-03-21T01:46:34;25.17;;;18.73;;
12762;SDS011;6445;52.490;13.378;2023-03-21T01:49:12;22.75;;;19.10;;
12762;SDS011;6445;52.490;13.378;2023-03-21T01:51:45;25.55;;;19.73;;
12762;SDS011;6445;52.490;13.378;2023-03-21T01:54:16;27.00;;;20.95;;
12762;SDS011;6445;52.490;13.378;2023-03-21T01:56:48;27.58;;;21.23;;
12762;SDS011;6445;52.490;13.378;2023-03-21T01:59:26;29.13;;;21.45;;
12762;SDS011;6445;52.490;13.378;2023-03-21T02:01:56;27.25;;;21.75;;
12762;SDS011;6445;52.490;13.378;2023-03-21T02:04:31;28.50;;;21.63;;
12762;SDS011;6445;52.490;13.378;2023-03-21T02:06:58;28.33;;;21.10;;
12762;SDS011;6445;52.490;13.378;2023-03-21T02:09:29;30.88;;;22.80;;
12762;SDS011;6445;52.490;13.378;2023-03-21T02:11:57;30.55;;;23.33;;
12762;SDS011;6445;52.490;13.378;2023-03-21T02:14:23;31.35;;;23.45;;
12762;SDS011;6445;52.490;13.378;2023-03-21T02:16:54;29.20;;;23.77;;
12762;SDS011;6445;52.490;13.378;2023-03-21T02:19:39;30.88;;;23.33;;
12762;SDS011;6445;52.490;13.378;2023-03-21T02:25:27;33.50;;;23.75;;
12762;SDS011;6445;52.490;13.378;2023-03-21T02:27:57;34.38;;;24.60;;
12762;SDS011;6445;52.490;13.378;2023-03-21T02:30:30;33.40;;;24.40;;
12762;SDS011;6445;52.490;13.378;2023-03-21T02:35:53;32.45;;;23.77;;
12762;SDS011;6445;52.490;13.378;2023-03-21T02:38:37;28.92;;;22.42;;
12762;SDS011;6445;52.490;13.378;2023-03-21T02:41:14;35.35;;;24.20;;
12762;SDS011;6445;52.490;13.378;2023-03-21T02:43:44;30.52;;;24.05;;
12762;SDS011;6445;52.490;13.378;2023-03-21T02:46:30;32.58;;;23.77;;
12762;SDS011;6445;52.490;13.378;2023-03-21T02:49:14;31.88;;;23.02;;
12762;SDS011;6445;52.490;13.378;2023-03-21T02:51:44;32.05;;;23.67;;
12762;SDS011;6445;52.490;13.378;2023-03-21T02:54:13;31.40;;;22.98;;
12762;SDS011;6445;52.490;13.378;2023-03-21T02:56:42;34.83;;;23.45;;
12762;SDS011;6445;52.490;13.378;2023-03-21T02:59:10;32.83;;;23.88;;
12762;SDS011;6445;52.490;13.378;2023-03-21T03:01:36;33.17;;;24.00;;
12762;SDS011;6445;52.490;13.378;2023-03-21T03:04:02;32.08;;;23.58;;
12762;SDS011;6445;52.490;13.378;2023-03-21T03:06:28;35.33;;;25.25;;
12762;SDS011;6445;52.490;13.378;2023-03-21T03:09:06;32.15;;;23.42;;
12762;SDS011;6445;52.490;13.378;2023-03-21T03:11:49;31.48;;;23.15;;
12762;SDS011;6445;52.490;13.378;2023-03-21T03:14:38;33.80;;;23.95;;
12762;SDS011;6445;52.490;13.378;2023-03-21T03:17:22;35.00;;;24.00;;
12762;SDS011;6445;52.490;13.378;2023-03-21T03:20:14;33.65;;;24.55;;
12762;SDS011;6445;52.490;13.378;2023-03-21T03:22:51;35.15;;;24.38;;
12762;SDS011;6445;52.490;13.378;2023-03-21T03:25:26;35.38;;;25.33;;
12762;SDS011;6445;52.490;13.378;2023-03-21T03:27:55;38.13;;;25.65;;
12762;SDS011;6445;52.490;13.378;2023-03-21T03:30:23;35.03;;;24.42;;
12762;SDS011;6445;52.490;13.378;2023-03-21T03:32:52;36.17;;;24.77;;
12762;SDS011;6445;52.490;13.378;2023-03-21T03:35:22;35.55;;;24.92;;
12762;SDS011;6445;52.490;13.378;2023-03-21T03:37:51;35.47;;;25.02;;
12762;SDS011;6445;52.490;13.378;2023-03-21T03:40:34;36.10;;;23.77;;
12762;SDS011;6445;52.490;13.378;2023-03-21T03:43:06;32.75;;;24.33;;
12762;SDS011;6445;52.490;13.378;2023-03-21T03:45:42;34.65;;;24.90;;
12762;SDS011;6445;52.490;13.378;2023-03-21T03:48:14;35.72;;;25.77;;
12762;SDS011;6445;52.490;13.378;2023-03-21T03:53:49;34.45;;;25.30;;
12762;SDS011;6445;52.490;13.378;2023-03-21T03:56:36;39.72;;;25.17;;
12762;SDS011;6445;52.490;13.378;2023-03-21T03:59:03;36.70;;;25.00;;
12762;SDS011;6445;52.490;13.378;2023-03-21T04:01:29;33.15;;;23.83;;
12762;SDS011;6445;52.490;13.378;2023-03-21T04:03:54;34.80;;;23.85;;
12762;SDS011;6445;52.490;13.378;2023-03-21T04:06:19;35.67;;;24.25;;
12762;SDS011;6445;52.490;13.378;2023-03-21T04:08:46;42.67;;;24.75;;
12762;SDS011;6445;52.490;13.378;2023-03-21T04:11:14;33.60;;;24.20;;
12762;SDS011;6445;52.490;13.378;2023-03-21T04:13:40;33.92;;;24.27;;
12762;SDS011;6445;52.490;13.378;2023-03-21T04:16:06;34.83;;;24.15;;
12762;SDS011;6445;52.490;13.378;2023-03-21T04:18:32;33.97;;;23.15;;
12762;SDS011;6445;52.490;13.378;2023-03-21T04:20:58;39.22;;;24.42;;
12762;SDS011;6445;52.490;13.378;2023-03-21T04:23:26;32.38;;;22.33;;
12762;SDS011;6445;52.490;13.378;2023-03-21T04:25:53;36.85;;;24.00;;
12762;SDS011;6445;52.490;13.378;2023-03-21T04:28:18;33.90;;;23.25;;
12762;SDS011;6445;52.490;13.378;2023-03-21T04:30:45;33.83;;;23.15;;
12762;SDS011;6445;52.490;13.378;2023-03-21T04:33:13;34.50;;;23.55;;
12762;SDS011;6445;52.490;13.378;2023-03-21T04:35:39;34.28;;;22.98;;
12762;SDS011;6445;52.490;13.378;2023-03-21T04:38:06;35.05;;;24.70;;
12762;SDS011;6445;52.490;13.378;2023-03-21T04:40:32;35.45;;;22.90;;
12762;SDS011;6445;52.490;13.378;2023-03-21T04:42:57;35.97;;;23.33;;
12762;SDS011;6445;52.490;13.378;2023-03-21T04:45:25;35.00;;;23.75;;
12762;SDS011;6445;52.490;13.378;2023-03-21T04:47:50;35.90;;;23.38;;
12762;SDS011;6445;52.490;13.378;2023-03-21T04:50:15;34.72;;;24.02;;
12762;SDS011;6445;52.490;13.378;2023-03-21T04:52:41;33.47;;;22.73;;
12762;SDS011;6445;52.490;13.378;2023-03-21T04:55:06;45.80;;;26.23;;
12762;SDS011;6445;52.490;13.378;2023-03-21T04:57:34;36.75;;;23.50;;
12762;SDS011;6445;52.490;13.378;2023-03-21T04:59:59;36.95;;;23.33;;
12762;SDS011;6445;52.490;13.378;2023-03-21T05:02:25;38.08;;;23.50;;
12762;SDS011;6445;52.490;13.378;2023-03-21T05:04:50;36.60;;;23.83;;
12762;SDS011;6445;52.490;13.378;2023-03-21T05:07:16;38.63;;;24.02;;
12762;SDS011;6445;52.490;13.378;2023-03-21T05:09:41;33.33;;;23.23;;
12762;SDS011;6445;52.490;13.378;2023-03-21T05:12:06;37.75;;;23.45;;
12762;SDS011;6445;52.490;13.378;2023-03-21T05:14:32;34.80;;;23.80;;
12762;SDS011;6445;52.490;13.378;2023-03-21T05:16:58;39.33;;;22.98;;
12762;SDS011;6445;52.490;13.378;2023-03-21T05:19:26;37.83;;;24.45;;
12762;SDS011;6445;52.490;13.378;2023-03-21T05:22:06;34.15;;;22.30;;
12762;SDS011;6445;52.490;13.378;2023-03-21T05:24:32;33.28;;;22.75;;
12762;SDS011;6445;52.490;13.378;2023-03-21T05:26:58;35.92;;;23.77;;
12762;SDS011;6445;52.490;13.378;2023-03-21T05:29:26;32.80;;;23.52;;
12762;SDS011;6445;52.490;13.378;2023-03-21T05:31:51;36.97;;;24.95;;
12762;SDS011;6445;52.490;13.378;2023-03-21T05:34:16;38.17;;;24.45;;
12762;SDS011;6445;52.490;13.378;2023-03-21T05:36:41;36.08;;;23.40;;
12762;SDS011;6445;52.490;13.378;2023-03-21T05:39:07;37.17;;;24.10;;
12762;SDS011;6445;52.490;13.378;2023-03-21T05:41:32;38.40;;;24.90;;
12762;SDS011;6445;52.490;13.378;2023-03-21T05:43:57;36.72;;;23.73;;
12762;SDS011;6445;52.490;13.378;2023-03-21T05:46:22;34.90;;;24.23;;
12762;SDS011;6445;52.490;13.378;2023-03-21T05:48:48;36.72;;;24.50;;
12762;SDS011;6445;52.490;13.378;2023-03-21T05:51:13;45.47;;;25.92;;
12762;SDS011;6445;52.490;13.378;2023-03-21T05:53:39;37.30;;;24.45;;
12762;SDS011;6445;52.490;13.378;2023-03-21T05:56:04;37.88;;;24.08;;
12762;SDS011;6445;52.490;13.378;2023-03-21T05:58:30;38.67;;;24.65;;
12762;SDS011;6445;52.490;13.378;2023-03-21T06:00:55;38.60;;;23.38;;
12762;SDS011;6445;52.490;13.378;2023-03-21T06:03:21;38.75;;;24.08;;
12762;SDS011;6445;52.490;13.378;2023-03-21T06:05:46;38.38;;;25.05;;
12762;SDS011;6445;52.490;13.378;2023-03-21T06:08:11;42.38;;;24.80;;
12762;SDS011;6445;52.490;13.378;2023-03-21T06:10:36;45.78;;;29.95;;
12762;SDS011;6445;52.490;13.378;2023-03-21T06:13:02;40.85;;;25.25;;
12762;SDS011;6445;52.490;13.378;2023-03-21T06:15:27;37.83;;;24.80;;
12762;SDS011;6445;52.490;13.378;2023-03-21T06:17:52;38.80;;;24.95;;
12762;SDS011;6445;52.490;13.378;2023-03-21T06:20:18;39.20;;;24.00;;
12762;SDS011;6445;52.490;13.378;2023-03-21T06:22:43;39.25;;;25.00;;
12762;SDS011;6445;52.490;13.378;2023-03-21T06:25:08;35.97;;;24.70;;
12762;SDS011;6445;52.490;13.378;2023-03-21T06:27:34;38.10;;;24.35;;
12762;SDS011;6445;52.490;13.378;2023-03-21T06:30:00;40.03;;;23.45;;
12762;SDS011;6445;52.490;13.378;2023-03-21T06:32:25;41.83;;;24.20;;
12762;SDS011;6445;52.490;13.378;2023-03-21T06:34:51;42.05;;;24.40;;
12762;SDS011;6445;52.490;13.378;2023-03-21T06:37:17;38.40;;;23.67;;
12762;SDS011;6445;52.490;13.378;2023-03-21T06:39:42;42.05;;;26.15;;
12762;SDS011;6445;52.490;13.378;2023-03-21T06:42:08;41.92;;;24.80;;
12762;SDS011;6445;52.490;13.378;2023-03-21T06:44:34;38.95;;;25.83;;
12762;SDS011;6445;52.490;13.378;2023-03-21T06:46:59;39.75;;;25.08;;
12762;SDS011;6445;52.490;13.378;2023-03-21T06:49:25;40.00;;;25.27;;
12762;SDS011;6445;52.490;13.378;2023-03-21T06:51:51;40.03;;;25.92;;
12762;SDS011;6445;52.490;13.378;2023-03-21T06:54:16;41.78;;;24.88;;
12762;SDS011;6445;52.490;13.378;2023-03-21T06:56:42;40.05;;;25.70;;
12762;SDS011;6445;52.490;13.378;2023-03-21T06:59:08;41.58;;;26.45;;
12762;SDS011;6445;52.490;13.378;2023-03-21T07:01:33;39.83;;;26.40;;
12762;SDS011;6445;52.490;13.378;2023-03-21T07:03:59;42.90;;;27.00;;
12762;SDS011;6445;52.490;13.378;2023-03-21T07:06:25;46.25;;;27.63;;
12762;SDS011;6445;52.490;13.378;2023-03-21T07:08:51;44.78;;;27.90;;
12762;SDS011;6445;52.490;13.378;2023-03-21T07:11:17;40.97;;;26.95;;
12762;SDS011;6445;52.490;13.378;2023-03-21T07:13:43;43.13;;;28.10;;
12762;SDS011;6445;52.490;13.378;2023-03-21T07:16:08;48.53;;;27.80;;
12762;SDS011;6445;52.490;13.378;2023-03-21T07:18:34;44.10;;;27.00;;
12762;SDS011;6445;52.490;13.378;2023-03-21T07:20:59;41.75;;;27.35;;
12762;SDS011;6445;52.490;13.378;2023-03-21T07:23:25;44.70;;;27.90;;
12762;SDS011;6445;52.490;13.378;2023-03-21T07:25:51;43.55;;;27.52;;
12762;SDS011;6445;52.490;13.378;2023-03-21T07:28:17;45.05;;;27.38;;
12762;SDS011;6445;52.490;13.378;2023-03-21T07:30:43;47.28;;;29.33;;
12762;SDS011;6445;52.490;13.378;2023-03-21T07:33:09;46.67;;;28.80;;
12762;SDS011;6445;52.490;13.378;2023-03-21T07:35:36;46.25;;;28.48;;
12762;SDS011;6445;52.490;13.378;2023-03-21T07:38:02;44.47;;;28.35;;
12762;SDS011;6445;52.490;13.378;2023-03-21T07:40:28;44.33;;;27.90;;
12762;SDS011;6445;52.490;13.378;2023-03-21T07:42:53;39.88;;;26.67;;
12762;SDS011;6445;52.490;13.378;2023-03-21T07:45:19;44.42;;;27.10;;
12762;SDS011;6445;52.490;13.378;2023-03-21T07:47:46;43.85;;;27.58;;
12762;SDS011;6445;52.490;13.378;2023-03-21T07:50:12;44.50;;;27.88;;
12762;SDS011;6445;52.490;13.378;2023-03-21T07:52:38;41.55;;;26.95;;
12762;SDS011;6445;52.490;13.378;2023-03-21T07:55:03;45.17;;;27.85;;
12762;SDS011;6445;52.490;13.378;2023-03-21T07:57:29;40.58;;;26.80;;
12762;SDS011;6445;52.490;13.378;2023-03-21T07:59:54;46.65;;;27.70;;
12762;SDS011;6445;52.490;13.378;2023-03-21T08:02:20;45.30;;;26.95;;
12762;SDS011;6445;52.490;13.378;2023-03-21T08:04:45;39.92;;;26.02;;
12762;SDS011;6445;52.490;13.378;2023-03-21T08:07:10;43.40;;;27.33;;
12762;SDS011;6445;52.490;13.378;2023-03-21T08:09:36;41.22;;;25.80;;
12762;SDS011;6445;52.490;13.378;2023-03-21T08:12:02;43.17;;;26.20;;
12762;SDS011;6445;52.490;13.378;2023-03-21T08:14:28;39.90;;;25.30;;
12762;SDS011;6445;52.490;13.378;2023-03-21T08:16:53;40.92;;;26.10;;
12762;SDS011;6445;52.490;13.378;2023-03-21T08:19:18;39.80;;;25.33;;
12762;SDS011;6445;52.490;13.378;2023-03-21T08:21:46;41.03;;;25.25;;
12762;SDS011;6445;52.490;13.378;2023-03-21T08:24:12;37.72;;;25.25;;
12762;SDS011;6445;52.490;13.378;2023-03-21T08:26:37;44.88;;;26.42;;
12762;SDS011;6445;52.490;13.378;2023-03-21T08:29:02;45.75;;;27.83;;
12762;SDS011;6445;52.490;13.378;2023-03-21T08:31:27;44.25;;;27.35;;
12762;SDS011;6445;52.490;13.378;2023-03-21T08:33:53;45.17;;;26.83;;
12762;SDS011;6445;52.490;13.378;2023-03-21T08:36:20;44.55;;;27.60;;
12762;SDS011;6445;52.490;13.378;2023-03-21T08:38:46;46.22;;;27.15;;
12762;SDS011;6445;52.490;13.378;2023-03-21T08:41:12;44.30;;;27.35;;
12762;SDS011;6445;52.490;13.378;2023-03-21T08:43:40;44.40;;;26.38;;
12762;SDS011;6445;52.490;13.378;2023-03-21T08:46:05;42.90;;;25.98;;
12762;SDS011;6445;52.490;13.378;2023-03-21T08:48:31;42.25;;;26.33;;
12762;SDS011;6445;52.490;13.378;2023-03-21T08:50:58;40.83;;;26.25;;
12762;SDS011;6445;52.490;13.378;2023-03-21T08:53:24;39.85;;;24.77;;
12762;SDS011;6445;52.490;13.378;2023-03-21T08:55:49;38.70;;;25.50;;
12762;SDS011;6445;52.490;13.378;2023-03-21T08:58:15;41.33;;;24.75;;
12762;SDS011;6445;52.490;13.378;2023-03-21T09:00:41;39.80;;;23.42;;
12762;SDS011;6445;52.490;13.378;2023-03-21T09:03:06;35.00;;;22.52;;
12762;SDS011;6445;52.490;13.378;2023-03-21T09:05:31;36.35;;;23.52;;
12762;SDS011;6445;52.490;13.378;2023-03-21T09:07:57;40.22;;;24.25;;
12762;SDS011;6445;52.490;13.378;2023-03-21T09:10:25;35.50;;;22.52;;
12762;SDS011;6445;52.490;13.378;2023-03-21T09:12:51;34.55;;;21.67;;
12762;SDS011;6445;52.490;13.378;2023-03-21T09:15:18;35.25;;;22.38;;
12762;SDS011;6445;52.490;13.378;2023-03-21T09:17:45;39.60;;;23.92;;
12762;SDS011;6445;52.490;13.378;2023-03-21T09:20:14;37.78;;;23.73;;
12762;SDS011;6445;52.490;13.378;2023-03-21T09:22:50;35.58;;;22.27;;
12762;SDS011;6445;52.490;13.378;2023-03-21T09:25:18;33.15;;;21.35;;
12762;SDS011;6445;52.490;13.378;2023-03-21T09:27:45;39.05;;;23.05;;
12762;SDS011;6445;52.490;13.378;2023-03-21T09:30:11;37.80;;;23.40;;
12762;SDS011;6445;52.490;13.378;2023-03-21T09:32:37;35.50;;;22.15;;
12762;SDS011;6445;52.490;13.378;2023-03-21T09:35:03;38.08;;;22.88;;
12762;SDS011;6445;52.490;13.378;2023-03-21T09:37:31;34.60;;;21.33;;
12762;SDS011;6445;52.490;13.378;2023-03-21T09:39:57;35.85;;;22.73;;
12762;SDS011;6445;52.490;13.378;2023-03-21T09:45:05;32.67;;;21.85;;
12762;SDS011;6445;52.490;13.378;2023-03-21T09:47:43;33.50;;;21.63;;
12762;SDS011;6445;52.490;13.378;2023-03-21T09:50:18;35.17;;;20.75;;
12762;SDS011;6445;52.490;13.378;2023-03-21T09:52:58;33.40;;;21.65;;
12762;SDS011;6445;52.490;13.378;2023-03-21T09:55:40;32.47;;;20.70;;
12762;SDS011;6445;52.490;13.378;2023-03-21T09:58:15;36.35;;;21.63;;
12762;SDS011;6445;52.490;13.378;2023-03-21T10:01:09;31.73;;;21.30;;
12762;SDS011;6445;52.490;13.378;2023-03-21T10:03:46;33.45;;;21.30;;
12762;SDS011;6445;52.490;13.378;2023-03-21T10:06:14;33.20;;;21.65;;
12762;SDS011;6445;52.490;13.378;2023-03-21T10:08:40;31.90;;;20.50;;
12762;SDS011;6445;52.490;13.378;2023-03-21T10:13:43;29.85;;;21.33;;
12762;SDS011;6445;52.490;13.378;2023-03-21T10:16:14;31.17;;;20.42;;
12762;SDS011;6445;52.490;13.378;2023-03-21T10:18:42;28.83;;;19.80;;
12762;SDS011;6445;52.490;13.378;2023-03-21T10:21:12;28.92;;;19.65;;
12762;SDS011;6445;52.490;13.378;2023-03-21T10:23:43;32.83;;;20.13;;
12762;SDS011;6445;52.490;13.378;2023-03-21T10:26:09;31.20;;;19.80;;
12762;SDS011;6445;52.490;13.378;2023-03-21T10:28:36;31.40;;;20.35;;
12762;SDS011;6445;52.490;13.378;2023-03-21T10:31:05;30.83;;;19.08;;
12762;SDS011;6445;52.490;13.378;2023-03-21T10:33:41;31.02;;;20.42;;
12762;SDS011;6445;52.490;13.378;2023-03-21T10:36:09;28.67;;;19.48;;
12762;SDS011;6445;52.490;13.378;2023-03-21T10:41:26;29.67;;;19.20;;
12762;SDS011;6445;52.490;13.378;2023-03-21T10:46:31;29.70;;;18.42;;
12762;SDS011;6445;52.490;13.378;2023-03-21T10:48:57;27.35;;;18.05;;
12762;SDS011;6445;52.490;13.378;2023-03-21T10:51:32;23.38;;;17.00;;
12762;SDS011;6445;52.490;13.378;2023-03-21T10:54:05;23.42;;;16.45;;
12762;SDS011;6445;52.490;13.378;2023-03-21T10:56:37;27.95;;;17.85;;
12762;SDS011;6445;52.490;13.378;2023-03-21T10:59:04;29.10;;;18.48;;
12762;SDS011;6445;52.490;13.378;2023-03-21T11:01:34;25.98;;;18.48;;
12762;SDS011;6445;52.490;13.378;2023-03-21T11:04:07;28.90;;;17.75;;
12762;SDS011;6445;52.490;13.378;2023-03-21T11:06:38;28.63;;;17.77;;
12762;SDS011;6445;52.490;13.378;2023-03-21T11:09:07;28.70;;;18.58;;
12762;SDS011;6445;52.490;13.378;2023-03-21T11:11:39;26.73;;;17.90;;
12762;SDS011;6445;52.490;13.378;2023-03-21T11:14:07;27.70;;;18.23;;
12762;SDS011;6445;52.490;13.378;2023-03-21T11:16:51;25.15;;;17.85;;
12762;SDS011;6445;52.490;13.378;2023-03-21T11:19:18;26.65;;;16.95;;
12762;SDS011;6445;52.490;13.378;2023-03-21T11:21:49;25.83;;;18.05;;
12762;SDS011;6445;52.490;13.378;2023-03-21T11:24:15;27.92;;;17.23;;
12762;SDS011;6445;52.490;13.378;2023-03-21T11:26:46;26.25;;;17.42;;
12762;SDS011;6445;52.490;13.378;2023-03-21T11:29:30;24.08;;;17.42;;
12762;SDS011;6445;52.490;13.378;2023-03-21T11:31:59;26.27;;;17.52;;
12762;SDS011;6445;52.490;13.378;2023-03-21T11:34:42;24.63;;;16.65;;
12762;SDS011;6445;52.490;13.378;2023-03-21T11:37:27;28.10;;;16.70;;
12762;SDS011;6445;52.490;13.378;2023-03-21T11:40:12;23.25;;;16.33;;
12762;SDS011;6445;52.490;13.378;2023-03-21T11:42:47;24.30;;;16.55;;
12762;SDS011;6445;52.490;13.378;2023-03-21T11:47:44;22.27;;;15.55;;
12762;SDS011;6445;52.490;13.378;2023-03-21T11:53:12;21.08;;;15.38;;
12762;SDS011;6445;52.490;13.378;2023-03-21T11:58:57;21.20;;;15.15;;
12762;SDS011;6445;52.490;13.378;2023-03-21T12:01:35;22.80;;;16.45;;
12762;SDS011;6445;52.490;13.378;2023-03-21T12:04:12;24.02;;;17.48;;
12762;SDS011;6445;52.490;13.378;2023-03-21T12:07:08;24.88;;;16.83;;
12762;SDS011;6445;52.490;13.378;2023-03-21T12:12:49;23.00;;;16.45;;
12762;SDS011;6445;52.490;13.378;2023-03-21T12:20:40;23.77;;;15.55;;
12762;SDS011;6445;52.490;13.378;2023-03-21T12:26:05;22.17;;;15.73;;
12762;SDS011;6445;52.490;13.378;2023-03-21T12:28:43;20.08;;;14.63;;
12762;SDS011;6445;52.490;13.378;2023-03-21T12:37:16;21.70;;;15.38;;
12762;SDS011;6445;52.490;13.378;2023-03-21T12:39:52;20.70;;;15.10;;
12762;SDS011;6445;52.490;13.378;2023-03-21T12:42:35;21.23;;;15.02;;
12762;SDS011;6445;52.490;13.378;2023-03-21T12:45:14;19.67;;;14.32;;
12762;SDS011;6445;52.490;13.378;2023-03-21T12:47:59;18.92;;;14.15;;
12762;SDS011;6445;52.490;13.378;2023-03-21T12:50:38;20.42;;;14.82;;
12762;SDS011;6445;52.490;13.378;2023-03-21T12:53:25;17.77;;;13.77;;
12762;SDS011;6445;52.490;13.378;2023-03-21T12:55:54;17.88;;;12.95;;
12762;SDS011;6445;52.490;13.378;2023-03-21T12:58:23;16.63;;;12.98;;
12762;SDS011;6445;52.490;13.378;2023-03-21T13:00:52;19.17;;;14.50;;
12762;SDS011;6445;52.490;13.378;2023-03-21T13:03:20;20.98;;;14.45;;
12762;SDS011;6445;52.490;13.378;2023-03-21T13:05:55;16.42;;;12.93;;
12762;SDS011;6445;52.490;13.378;2023-03-21T13:08:23;17.70;;;13.25;;
12762;SDS011;6445;52.490;13.378;2023-03-21T13:10:55;18.83;;;13.95;;
12762;SDS011;6445;52.490;13.378;2023-03-21T13:13:32;15.38;;;12.57;;
12762;SDS011;6445;52.490;13.378;2023-03-21T13:18:48;16.30;;;11.70;;
12762;SDS011;6445;52.490;13.378;2023-03-21T13:26:49;15.15;;;11.70;;
12762;SDS011;6445;52.490;13.378;2023-03-21T13:29:23;13.65;;;11.10;;
12762;SDS011;6445;52.490;13.378;2023-03-21T13:31:51;16.48;;;11.98;;
12762;SDS011;6445;52.490;13.378;2023-03-21T13:34:20;15.43;;;11.65;;
12762;SDS011;6445;52.490;13.378;2023-03-21T13:36:47;15.27;;;10.90;;
12762;SDS011;6445;52.490;13.378;2023-03-21T13:39:16;14.95;;;11.25;;
12762;SDS011;6445;52.490;13.378;2023-03-21T13:41:44;18.75;;;11.27;;
12762;SDS011;6445;52.490;13.378;2023-03-21T13:44:22;15.68;;;10.93;;
12762;SDS011;6445;52.490;13.378;2023-03-21T13:49:35;13.57;;;10.98;;
12762;SDS011;6445;52.490;13.378;2023-03-21T13:54:43;13.02;;;10.07;;
12762;SDS011;6445;52.490;13.378;2023-03-21T14:05:33;15.52;;;10.75;;
12762;SDS011;6445;52.490;13.378;2023-03-21T14:08:09;14.65;;;10.60;;
12762;SDS011;6445;52.490;13.378;2023-03-21T14:10:41;13.98;;;11.13;;
12762;SDS011;6445;52.490;13.378;2023-03-21T14:13:15;15.82;;;11.15;;
12762;SDS011;6445;52.490;13.378;2023-03-21T14:15:44;18.98;;;11.80;;
12762;SDS011;6445;52.490;13.378;2023-03-21T14:18:13;14.50;;;11.13;;
12762;SDS011;6445;52.490;13.378;2023-03-21T14:20:40;14.35;;;10.85;;
12762;SDS011;6445;52.490;13.378;2023-03-21T14:23:07;13.73;;;10.70;;
12762;SDS011;6445;52.490;13.378;2023-03-21T14:25:38;14.23;;;10.52;;
12762;SDS011;6445;52.490;13.378;2023-03-21T14:28:07;13.23;;;10.88;;
12762;SDS011;6445;52.490;13.378;2023-03-21T14:30:40;14.55;;;10.82;;
12762;SDS011;6445;52.490;13.378;2023-03-21T14:35:40;15.25;;;10.07;;
12762;SDS011;6445;52.490;13.378;2023-03-21T14:38:07;13.40;;;9.95;;
12762;SDS011;6445;52.490;13.378;2023-03-21T14:40:45;12.23;;;9.07;;
12762;SDS011;6445;52.490;13.378;2023-03-21T14:43:12;12.23;;;10.00;;
12762;SDS011;6445;52.490;13.378;2023-03-21T14:45:37;13.18;;;9.80;;
12762;SDS011;6445;52.490;13.378;2023-03-21T14:48:07;12.50;;;9.13;;
12762;SDS011;6445;52.490;13.378;2023-03-21T14:50:49;13.57;;;10.52;;
12762;SDS011;6445;52.490;13.378;2023-03-21T14:53:26;12.45;;;9.55;;
12762;SDS011;6445;52.490;13.378;2023-03-21T14:55:59;12.25;;;9.55;;
12762;SDS011;6445;52.490;13.378;2023-03-21T14:58:31;11.85;;;9.07;;
12762;SDS011;6445;52.490;13.378;2023-03-21T15:01:02;13.50;;;9.95;;
12762;SDS011;6445;52.490;13.378;2023-03-21T15:03:29;13.07;;;9.23;;
12762;SDS011;6445;52.490;13.378;2023-03-21T15:05:56;12.02;;;10.20;;
12762;SDS011;6445;52.490;13.378;2023-03-21T15:08:23;13.50;;;9.80;;
12762;SDS011;6445;52.490;13.378;2023-03-21T15:10:54;14.32;;;9.20;;
12762;SDS011;6445;52.490;13.378;2023-03-21T15:13:22;12.07;;;9.98;;
12762;SDS011;6445;52.490;13.378;2023-03-21T15:15:54;13.45;;;10.10;;
12762;SDS011;6445;52.490;13.378;2023-03-21T15:18:24;14.55;;;9.77;;
12762;SDS011;6445;52.490;13.378;2023-03-21T15:20:52;11.60;;;9.25;;
12762;SDS011;6445;52.490;13.378;2023-03-21T15:23:25;12.57;;;9.30;;
12762;SDS011;6445;52.490;13.378;2023-03-21T15:26:12;13.70;;;9.38;;
12762;SDS011;6445;52.490;13.378;2023-03-21T15:28:40;11.85;;;9.00;;
12762;SDS011;6445;52.490;13.378;2023-03-21T15:31:05;14.35;;;9.35;;
12762;SDS011;6445;52.490;13.378;2023-03-21T15:33:40;12.95;;;9.68;;
12762;SDS011;6445;52.490;13.378;2023-03-21T15:36:07;12.70;;;8.93;;
12762;SDS011;6445;52.490;13.378;2023-03-21T15:38:37;12.50;;;8.93;;
12762;SDS011;6445;52.490;13.378;2023-03-21T15:41:22;12.18;;;8.70;;
12762;SDS011;6445;52.490;13.378;2023-03-21T15:49:08;18.58;;;9.35;;
12762;SDS011;6445;52.490;13.378;2023-03-21T15:54:17;11.88;;;9.45;;